sensor_id;sensor_type;location;lat;lon;timestamp;temperature;humidity
46976;DHT22;32724;51.094;6.996;2023-03-01T01:18:56;-2.80;99.90
46976;DHT22;32724;51.094;6.996;2023-03-01T01:21:22;-2.80;99.90
46976;DHT22;32724;51.094;6.996;2023-03-01T01:23:48;-2.70;99.90
46976;DHT22;32724;51.094;6.996;2023-03-01T01:26:15;-2.80;99.90
46976;DHT22;32724;51.094;6.996;2023-03-01T01:28:40;-2.80;99.90
46976;DHT22;32724;51.094;6.996;2023-03-01T01:31:06;-2.80;99.90
46976;DHT22;32724;51.094;6.996;2023-03-01T01:33:32;-2.90;99.90
46976;DHT22;32724;51.094;6.996;2023-03-01T01:35:57;-2.90;99.90
46976;DHT22;32724;51.094;6.996;2023-03-01T01:38:23;-3.00;99.90
46976;DHT22;32724;51.094;6.996;2023-03-01T01:40:49;-3.00;99.90
46976;DHT22;32724;51.094;6.996;2023-03-01T01:45:47;-3.10;99.90
46976;DHT22;32724;51.094;6.996;2023-03-01T01:48:13;-3.00;99.90
46976;DHT22;32724;51.094;6.996;2023-03-01T01:50:40;-3.10;99.90
46976;DHT22;32724;51.094;6.996;2023-03-01T01:53:10;-3.20;99.90
46976;DHT22;32724;51.094;6.996;2023-03-01T01:55:39;-3.30;99.90
46976;DHT22;32724;51.094;6.996;2023-03-01T01:58:06;-3.40;99.90
46976;DHT22;32724;51.094;6.996;2023-03-01T02:00:32;-3.40;99.90
46976;DHT22;32724;51.094;6.996;2023-03-01T02:02:59;-3.40;99.90
46976;DHT22;32724;51.094;6.996;2023-03-01T02:05:31;-3.40;99.90
46976;DHT22;32724;51.094;6.996;2023-03-01T02:07:58;-3.40;99.90
46976;DHT22;32724;51.094;6.996;2023-03-01T02:10:24;-3.50;99.90
46976;DHT22;32724;51.094;6.996;2023-03-01T02:12:51;-3.60;99.90
46976;DHT22;32724;51.094;6.996;2023-03-01T02:15:16;-3.60;99.90
46976;DHT22;32724;51.094;6.996;2023-03-01T02:17:42;-3.60;99.90
46976;DHT22;32724;51.094;6.996;2023-03-01T02:20:26;-3.70;99.90
46976;DHT22;32724;51.094;6.996;2023-03-01T02:22:55;-3.50;99.90
46976;DHT22;32724;51.094;6.996;2023-03-01T02:25:32;-3.40;99.90
46976;DHT22;32724;51.094;6.996;2023-03-01T02:30:24;-3.20;99.90
46976;DHT22;32724;51.094;6.996;2023-03-01T02:32:51;-3.10;99.90
46976;DHT22;32724;51.094;6.996;2023-03-01T02:35:17;-3.10;99.90
46976;DHT22;32724;51.094;6.996;2023-03-01T02:37:43;-2.90;99.90
46976;DHT22;32724;51.094;6.996;2023-03-01T02:40:10;-2.90;99.90
46976;DHT22;32724;51.094;6.996;2023-03-01T02:42:42;-2.80;99.90
46976;DHT22;32724;51.094;6.996;2023-03-01T02:45:10;-2.70;99.90
46976;DHT22;32724;51.094;6.996;2023-03-01T02:47:36;-2.70;99.90
46976;DHT22;32724;51.094;6.996;2023-03-01T02:50:01;-2.60;99.90
46976;DHT22;32724;51.094;6.996;2023-03-01T02:55:08;-2.60;99.90
46976;DHT22;32724;51.094;6.996;2023-03-01T02:57:35;-2.50;99.90
46976;DHT22;32724;51.094;6.996;2023-03-01T03:00:06;-2.00;99.90
46976;DHT22;32724;51.094;6.996;2023-03-01T03:02:32;-2.20;99.90
46976;DHT22;32724;51.094;6.996;2023-03-01T03:05:20;-2.20;99.90
46976;DHT22;32724;51.094;6.996;2023-03-01T03:07:47;-2.20;99.90
46976;DHT22;32724;51.094;6.996;2023-03-01T03:10:14;-2.20;99.90
46976;DHT22;32724;51.094;6.996;2023-03-01T03:12:40;-2.20;99.90
46976;DHT22;32724;51.094;6.996;2023-03-01T03:15:06;-2.20;99.90
46976;DHT22;32724;51.094;6.996;2023-03-01T03:17:37;-2.10;99.90
46976;DHT22;32724;51.094;6.996;2023-03-01T03:20:03;-2.00;99.90
46976;DHT22;32724;51.094;6.996;2023-03-01T03:22:29;-1.90;99.90
46976;DHT22;32724;51.094;6.996;2023-03-01T03:24:54;-1.90;99.90
46976;DHT22;32724;51.094;6.996;2023-03-01T03:27:20;-1.90;99.90
46976;DHT22;32724;51.094;6.996;2023-03-01T03:29:45;-1.90;99.90
46976;DHT22;32724;51.094;6.996;2023-03-01T03:32:11;-1.70;99.90
46976;DHT22;32724;51.094;6.996;2023-03-01T03:34:36;-1.80;99.90
46976;DHT22;32724;51.094;6.996;2023-03-01T03:37:02;-1.80;99.90
46976;DHT22;32724;51.094;6.996;2023-03-01T03:39:27;-1.90;99.90
46976;DHT22;32724;51.094;6.996;2023-03-01T03:41:54;-1.90;99.90
46976;DHT22;32724;51.094;6.996;2023-03-01T03:44:20;-2.00;99.90
46976;DHT22;32724;51.094;6.996;2023-03-01T03:46:45;-2.00;99.90
46976;DHT22;32724;51.094;6.996;2023-03-01T03:49:11;-2.00;99.90
46976;DHT22;32724;51.094;6.996;2023-03-01T03:51:36;-2.10;99.90
46976;DHT22;32724;51.094;6.996;2023-03-01T03:54:01;-2.10;99.90
46976;DHT22;32724;51.094;6.996;2023-03-01T03:56:27;-2.20;99.90
46976;DHT22;32724;51.094;6.996;2023-03-01T03:58:52;-2.20;99.90
46976;DHT22;32724;51.094;6.996;2023-03-01T04:01:18;-2.30;99.90
46976;DHT22;32724;51.094;6.996;2023-03-01T04:03:43;-2.40;99.90
46976;DHT22;32724;51.094;6.996;2023-03-01T04:06:12;-2.40;99.90
46976;DHT22;32724;51.094;6.996;2023-03-01T04:08:38;-2.40;99.90
46976;DHT22;32724;51.094;6.996;2023-03-01T04:11:04;-2.30;99.90
46976;DHT22;32724;51.094;6.996;2023-03-01T04:13:49;-2.20;99.90
46976;DHT22;32724;51.094;6.996;2023-03-01T04:16:14;-2.10;99.90
46976;DHT22;32724;51.094;6.996;2023-03-01T04:18:40;-2.10;99.90
46976;DHT22;32724;51.094;6.996;2023-03-01T04:21:05;-2.10;99.90
46976;DHT22;32724;51.094;6.996;2023-03-01T04:23:31;-2.00;99.90
46976;DHT22;32724;51.094;6.996;2023-03-01T04:25:57;-2.00;99.90
46976;DHT22;32724;51.094;6.996;2023-03-01T04:28:23;-2.00;99.90
46976;DHT22;32724;51.094;6.996;2023-03-01T04:30:50;-1.90;99.90
46976;DHT22;32724;51.094;6.996;2023-03-01T04:33:16;-1.90;99.90
46976;DHT22;32724;51.094;6.996;2023-03-01T04:35:41;-1.80;99.90
46976;DHT22;32724;51.094;6.996;2023-03-01T04:38:07;-1.80;99.90
46976;DHT22;32724;51.094;6.996;2023-03-01T04:40:33;-1.80;99.90
46976;DHT22;32724;51.094;6.996;2023-03-01T04:42:58;-1.80;99.90
46976;DHT22;32724;51.094;6.996;2023-03-01T04:45:24;-1.80;99.90
46976;DHT22;32724;51.094;6.996;2023-03-01T04:47:49;-1.80;99.90
46976;DHT22;32724;51.094;6.996;2023-03-01T04:50:17;-1.80;99.90
46976;DHT22;32724;51.094;6.996;2023-03-01T04:52:46;-1.80;99.90
46976;DHT22;32724;51.094;6.996;2023-03-01T04:55:11;-1.90;99.90
46976;DHT22;32724;51.094;6.996;2023-03-01T04:57:37;-1.80;99.90
46976;DHT22;32724;51.094;6.996;2023-03-01T05:00:03;-1.80;99.90
46976;DHT22;32724;51.094;6.996;2023-03-01T05:02:54;-1.80;99.90
46976;DHT22;32724;51.094;6.996;2023-03-01T05:05:24;-1.90;99.90
46976;DHT22;32724;51.094;6.996;2023-03-01T05:07:57;-1.90;99.90
46976;DHT22;32724;51.094;6.996;2023-03-01T05:10:24;-1.90;99.90
46976;DHT22;32724;51.094;6.996;2023-03-01T05:12:49;-1.90;99.90
46976;DHT22;32724;51.094;6.996;2023-03-01T05:15:15;-1.90;99.90
46976;DHT22;32724;51.094;6.996;2023-03-01T05:17:40;-1.80;99.90
46976;DHT22;32724;51.094;6.996;2023-03-01T05:20:06;-1.80;99.90
46976;DHT22;32724;51.094;6.996;2023-03-01T05:22:34;-1.80;99.90
46976;DHT22;32724;51.094;6.996;2023-03-01T05:25:00;-1.70;99.90
46976;DHT22;32724;51.094;6.996;2023-03-01T05:27:25;-1.80;99.90
46976;DHT22;32724;51.094;6.996;2023-03-01T05:29:51;-1.90;99.90
46976;DHT22;32724;51.094;6.996;2023-03-01T05:32:16;-1.90;99.90
46976;DHT22;32724;51.094;6.996;2023-03-01T05:34:42;-2.00;99.90
46976;DHT22;32724;51.094;6.996;2023-03-01T05:37:07;-2.00;99.90
46976;DHT22;32724;51.094;6.996;2023-03-01T05:39:33;-2.00;99.90
46976;DHT22;32724;51.094;6.996;2023-03-01T05:41:59;-2.00;99.90
46976;DHT22;32724;51.094;6.996;2023-03-01T05:44:25;-1.90;99.90
46976;DHT22;32724;51.094;6.996;2023-03-01T05:46:51;-2.00;99.90
46976;DHT22;32724;51.094;6.996;2023-03-01T05:49:16;-1.90;99.90
46976;DHT22;32724;51.094;6.996;2023-03-01T05:51:43;-1.90;99.90
46976;DHT22;32724;51.094;6.996;2023-03-01T05:54:09;-1.90;99.90
46976;DHT22;32724;51.094;6.996;2023-03-01T05:56:35;-1.90;99.90
46976;DHT22;32724;51.094;6.996;2023-03-01T05:59:01;-2.00;99.90
46976;DHT22;32724;51.094;6.996;2023-03-01T06:01:26;-1.60;99.90
46976;DHT22;32724;51.094;6.996;2023-03-01T06:03:52;-1.70;99.90
46976;DHT22;32724;51.094;6.996;2023-03-01T06:06:19;-1.90;99.90
46976;DHT22;32724;51.094;6.996;2023-03-01T06:08:45;-1.90;99.90
46976;DHT22;32724;51.094;6.996;2023-03-01T06:11:10;-2.00;99.90
46976;DHT22;32724;51.094;6.996;2023-03-01T06:13:36;-2.10;99.90
46976;DHT22;32724;51.094;6.996;2023-03-01T06:16:04;-2.00;99.90
46976;DHT22;32724;51.094;6.996;2023-03-01T06:18:29;-2.10;99.90
46976;DHT22;32724;51.094;6.996;2023-03-01T06:20:55;-2.10;99.90
46976;DHT22;32724;51.094;6.996;2023-03-01T06:23:21;-2.10;99.90
46976;DHT22;32724;51.094;6.996;2023-03-01T06:25:47;-2.00;99.90
46976;DHT22;32724;51.094;6.996;2023-03-01T06:28:12;-2.00;99.90
46976;DHT22;32724;51.094;6.996;2023-03-01T06:30:38;-2.00;99.90
46976;DHT22;32724;51.094;6.996;2023-03-01T06:33:03;-1.90;99.90
46976;DHT22;32724;51.094;6.996;2023-03-01T06:35:29;-1.80;99.90
46976;DHT22;32724;51.094;6.996;2023-03-01T06:37:55;-1.70;99.90
46976;DHT22;32724;51.094;6.996;2023-03-01T06:40:21;-1.80;99.90
46976;DHT22;32724;51.094;6.996;2023-03-01T06:42:48;-1.70;99.90
46976;DHT22;32724;51.094;6.996;2023-03-01T06:45:17;-1.60;99.90
46976;DHT22;32724;51.094;6.996;2023-03-01T06:47:42;-1.50;99.90
46976;DHT22;32724;51.094;6.996;2023-03-01T06:50:08;-1.40;99.90
46976;DHT22;32724;51.094;6.996;2023-03-01T06:52:33;-1.30;99.90
46976;DHT22;32724;51.094;6.996;2023-03-01T06:54:59;-1.30;99.90
46976;DHT22;32724;51.094;6.996;2023-03-01T06:57:24;-1.20;99.90
46976;DHT22;32724;51.094;6.996;2023-03-01T06:59:50;-1.00;99.90
46976;DHT22;32724;51.094;6.996;2023-03-01T07:02:16;-0.90;99.90
46976;DHT22;32724;51.094;6.996;2023-03-01T07:04:42;-0.90;99.90
46976;DHT22;32724;51.094;6.996;2023-03-01T07:07:07;-0.80;99.90
46976;DHT22;32724;51.094;6.996;2023-03-01T07:09:33;-0.70;99.90
46976;DHT22;32724;51.094;6.996;2023-03-01T07:11:59;-0.60;99.90
46976;DHT22;32724;51.094;6.996;2023-03-01T07:14:24;-0.50;99.90
46976;DHT22;32724;51.094;6.996;2023-03-01T07:16:51;-0.40;99.90
46976;DHT22;32724;51.094;6.996;2023-03-01T07:19:17;-0.30;99.90
46976;DHT22;32724;51.094;6.996;2023-03-01T07:21:42;-0.20;99.90
46976;DHT22;32724;51.094;6.996;2023-03-01T07:24:08;-0.10;99.90
46976;DHT22;32724;51.094;6.996;2023-03-01T07:26:33;-0.10;99.90
46976;DHT22;32724;51.094;6.996;2023-03-01T07:28:59;0.00;99.90
46976;DHT22;32724;51.094;6.996;2023-03-01T07:31:25;0.10;99.90
46976;DHT22;32724;51.094;6.996;2023-03-01T07:33:53;0.30;99.90
46976;DHT22;32724;51.094;6.996;2023-03-01T07:36:19;0.30;99.90
46976;DHT22;32724;51.094;6.996;2023-03-01T07:38:44;0.40;99.90
46976;DHT22;32724;51.094;6.996;2023-03-01T07:41:09;0.40;99.90
46976;DHT22;32724;51.094;6.996;2023-03-01T07:43:35;0.60;99.90
46976;DHT22;32724;51.094;6.996;2023-03-01T07:46:01;0.80;99.90
46976;DHT22;32724;51.094;6.996;2023-03-01T07:48:27;0.90;99.90
46976;DHT22;32724;51.094;6.996;2023-03-01T07:50:53;1.00;99.90
46976;DHT22;32724;51.094;6.996;2023-03-01T07:53:18;1.10;99.90
46976;DHT22;32724;51.094;6.996;2023-03-01T07:55:44;1.20;99.90
46976;DHT22;32724;51.094;6.996;2023-03-01T07:58:09;1.20;99.90
46976;DHT22;32724;51.094;6.996;2023-03-01T08:00:35;1.30;99.90
46976;DHT22;32724;51.094;6.996;2023-03-01T08:03:01;1.30;99.90
46976;DHT22;32724;51.094;6.996;2023-03-01T08:05:26;1.40;99.90
46976;DHT22;32724;51.094;6.996;2023-03-01T08:07:52;1.50;99.90
46976;DHT22;32724;51.094;6.996;2023-03-01T08:10:18;1.60;99.90
46976;DHT22;32724;51.094;6.996;2023-03-01T08:12:44;1.70;99.90
46976;DHT22;32724;51.094;6.996;2023-03-01T08:15:10;1.80;99.90
46976;DHT22;32724;51.094;6.996;2023-03-01T08:17:35;1.80;99.90
46976;DHT22;32724;51.094;6.996;2023-03-01T08:20:01;1.90;99.90
46976;DHT22;32724;51.094;6.996;2023-03-01T08:22:26;2.10;99.90
46976;DHT22;32724;51.094;6.996;2023-03-01T08:24:52;2.20;99.90
46976;DHT22;32724;51.094;6.996;2023-03-01T08:27:17;2.20;99.90
46976;DHT22;32724;51.094;6.996;2023-03-01T08:29:43;2.40;99.90
46976;DHT22;32724;51.094;6.996;2023-03-01T08:32:08;2.50;99.90
46976;DHT22;32724;51.094;6.996;2023-03-01T08:34:34;2.70;99.90
46976;DHT22;32724;51.094;6.996;2023-03-01T08:37:01;2.80;99.90
46976;DHT22;32724;51.094;6.996;2023-03-01T08:39:26;2.90;99.90
46976;DHT22;32724;51.094;6.996;2023-03-01T08:41:52;2.90;99.90
46976;DHT22;32724;51.094;6.996;2023-03-01T08:44:17;3.10;99.90
46976;DHT22;32724;51.094;6.996;2023-03-01T08:46:43;3.10;99.90
46976;DHT22;32724;51.094;6.996;2023-03-01T08:49:11;3.00;99.90
46976;DHT22;32724;51.094;6.996;2023-03-01T08:51:37;3.10;99.90
46976;DHT22;32724;51.094;6.996;2023-03-01T08:54:07;3.20;99.90
46976;DHT22;32724;51.094;6.996;2023-03-01T08:56:33;3.30;99.90
46976;DHT22;32724;51.094;6.996;2023-03-01T08:58:59;3.30;99.90
46976;DHT22;32724;51.094;6.996;2023-03-01T09:01:24;3.40;99.90
46976;DHT22;32724;51.094;6.996;2023-03-01T09:03:50;3.60;99.90
46976;DHT22;32724;51.094;6.996;2023-03-01T09:06:16;3.70;99.90
46976;DHT22;32724;51.094;6.996;2023-03-01T09:08:43;3.90;99.90
46976;DHT22;32724;51.094;6.996;2023-03-01T09:11:09;3.70;99.90
46976;DHT22;32724;51.094;6.996;2023-03-01T09:13:35;3.70;99.90
46976;DHT22;32724;51.094;6.996;2023-03-01T09:16:02;3.70;99.90
46976;DHT22;32724;51.094;6.996;2023-03-01T09:18:28;3.70;99.90
46976;DHT22;32724;51.094;6.996;2023-03-01T09:21:00;3.70;99.90
46976;DHT22;32724;51.094;6.996;2023-03-01T09:23:26;3.80;99.90
46976;DHT22;32724;51.094;6.996;2023-03-01T09:25:52;4.00;99.90
46976;DHT22;32724;51.094;6.996;2023-03-01T09:28:17;3.90;99.90
46976;DHT22;32724;51.094;6.996;2023-03-01T09:30:43;4.00;99.90
46976;DHT22;32724;51.094;6.996;2023-03-01T09:33:08;4.20;99.90
46976;DHT22;32724;51.094;6.996;2023-03-01T09:35:40;4.40;99.90
46976;DHT22;32724;51.094;6.996;2023-03-01T09:38:11;4.40;99.90
46976;DHT22;32724;51.094;6.996;2023-03-01T09:40:41;4.40;99.90
46976;DHT22;32724;51.094;6.996;2023-03-01T09:43:54;4.50;99.90
46976;DHT22;32724;51.094;6.996;2023-03-01T09:45:54;4.50;99.90
46976;DHT22;32724;51.094;6.996;2023-03-01T09:48:21;4.50;99.90
46976;DHT22;32724;51.094;6.996;2023-03-01T09:50:48;4.60;99.90
46976;DHT22;32724;51.094;6.996;2023-03-01T09:53:16;4.60;99.90
46976;DHT22;32724;51.094;6.996;2023-03-01T10:06:34;4.80;99.90
46976;DHT22;32724;51.094;6.996;2023-03-01T10:09:00;4.80;99.90
46976;DHT22;32724;51.094;6.996;2023-03-01T10:11:31;4.80;99.90
46976;DHT22;32724;51.094;6.996;2023-03-01T10:14:03;5.00;99.90
46976;DHT22;32724;51.094;6.996;2023-03-01T10:19:03;5.40;99.90
46976;DHT22;32724;51.094;6.996;2023-03-01T10:21:29;5.50;99.90
46976;DHT22;32724;51.094;6.996;2023-03-01T10:23:59;5.50;99.90
46976;DHT22;32724;51.094;6.996;2023-03-01T10:29:08;5.20;99.90
46976;DHT22;32724;51.094;6.996;2023-03-01T10:34:13;5.10;99.90
46976;DHT22;32724;51.094;6.996;2023-03-01T10:36:39;5.20;99.90
46976;DHT22;32724;51.094;6.996;2023-03-01T10:39:13;5.30;99.90
46976;DHT22;32724;51.094;6.996;2023-03-01T10:41:52;5.30;99.90
46976;DHT22;32724;51.094;6.996;2023-03-01T10:44:34;5.30;99.90
46976;DHT22;32724;51.094;6.996;2023-03-01T10:47:00;5.20;99.90
46976;DHT22;32724;51.094;6.996;2023-03-01T10:49:26;5.30;99.90
46976;DHT22;32724;51.094;6.996;2023-03-01T10:51:53;5.40;99.90
46976;DHT22;32724;51.094;6.996;2023-03-01T10:54:22;5.50;99.90
46976;DHT22;32724;51.094;6.996;2023-03-01T10:57:00;5.60;99.90
46976;DHT22;32724;51.094;6.996;2023-03-01T10:59:28;5.70;99.90
46976;DHT22;32724;51.094;6.996;2023-03-01T11:04:34;5.70;99.90
46976;DHT22;32724;51.094;6.996;2023-03-01T11:07:01;5.70;99.90
46976;DHT22;32724;51.094;6.996;2023-03-01T11:09:30;5.80;99.90
46976;DHT22;32724;51.094;6.996;2023-03-01T11:12:03;5.90;99.90
46976;DHT22;32724;51.094;6.996;2023-03-01T11:14:35;5.90;99.90
46976;DHT22;32724;51.094;6.996;2023-03-01T11:17:03;5.80;99.90
46976;DHT22;32724;51.094;6.996;2023-03-01T11:19:29;5.90;99.90
46976;DHT22;32724;51.094;6.996;2023-03-01T11:22:14;5.90;99.90
46976;DHT22;32724;51.094;6.996;2023-03-01T11:25:17;6.00;99.90
46976;DHT22;32724;51.094;6.996;2023-03-01T11:27:44;6.10;99.90
46976;DHT22;32724;51.094;6.996;2023-03-01T11:32:47;6.10;99.90
46976;DHT22;32724;51.094;6.996;2023-03-01T11:37:44;6.20;99.90
46976;DHT22;32724;51.094;6.996;2023-03-01T11:45:17;6.20;99.90
46976;DHT22;32724;51.094;6.996;2023-03-01T11:47:55;6.20;99.90
46976;DHT22;32724;51.094;6.996;2023-03-01T11:50:35;6.20;99.90
46976;DHT22;32724;51.094;6.996;2023-03-01T12:00:34;6.30;99.60
46976;DHT22;32724;51.094;6.996;2023-03-01T12:08:14;6.20;99.90
46976;DHT22;32724;51.094;6.996;2023-03-01T12:10:48;6.20;99.90
46976;DHT22;32724;51.094;6.996;2023-03-01T12:15:54;6.50;99.90
46976;DHT22;32724;51.094;6.996;2023-03-01T12:21:10;6.60;99.30
46976;DHT22;32724;51.094;6.996;2023-03-01T12:31:47;7.20;98.00
46976;DHT22;32724;51.094;6.996;2023-03-01T12:34:34;7.20;97.70
46976;DHT22;32724;51.094;6.996;2023-03-01T12:49:29;7.50;96.80
46976;DHT22;32724;51.094;6.996;2023-03-01T12:52:01;7.40;95.80
46976;DHT22;32724;51.094;6.996;2023-03-01T12:54:28;7.40;95.80
46976;DHT22;32724;51.094;6.996;2023-03-01T12:56:55;7.40;96.20
46976;DHT22;32724;51.094;6.996;2023-03-01T12:59:39;7.50;96.80
46976;DHT22;32724;51.094;6.996;2023-03-01T13:04:38;7.60;95.20
46976;DHT22;32724;51.094;6.996;2023-03-01T13:09:55;7.60;95.40
46976;DHT22;32724;51.094;6.996;2023-03-01T13:15:44;7.70;93.80
46976;DHT22;32724;51.094;6.996;2023-03-01T13:23:12;7.70;95.80
46976;DHT22;32724;51.094;6.996;2023-03-01T13:30:57;7.60;95.90
46976;DHT22;32724;51.094;6.996;2023-03-01T13:35:51;7.60;96.50
46976;DHT22;32724;51.094;6.996;2023-03-01T13:41:02;7.70;96.80
46976;DHT22;32724;51.094;6.996;2023-03-01T13:43:29;7.70;96.40
46976;DHT22;32724;51.094;6.996;2023-03-01T13:45:55;7.40;97.20
46976;DHT22;32724;51.094;6.996;2023-03-01T13:48:24;7.30;98.30
46976;DHT22;32724;51.094;6.996;2023-03-01T13:50:51;7.30;97.50
46976;DHT22;32724;51.094;6.996;2023-03-01T13:53:18;7.30;98.70
46976;DHT22;32724;51.094;6.996;2023-03-01T13:55:45;7.30;97.90
46976;DHT22;32724;51.094;6.996;2023-03-01T14:00:55;7.40;97.50
46976;DHT22;32724;51.094;6.996;2023-03-01T14:03:21;7.40;97.90
46976;DHT22;32724;51.094;6.996;2023-03-01T14:06:03;7.30;98.00
46976;DHT22;32724;51.094;6.996;2023-03-01T14:08:32;7.40;98.20
46976;DHT22;32724;51.094;6.996;2023-03-01T14:13:51;7.40;98.60
46976;DHT22;32724;51.094;6.996;2023-03-01T14:19:07;7.20;99.40
46976;DHT22;32724;51.094;6.996;2023-03-01T14:21:34;7.20;99.40
46976;DHT22;32724;51.094;6.996;2023-03-01T14:24:01;7.20;99.40
46976;DHT22;32724;51.094;6.996;2023-03-01T14:26:27;7.10;99.50
46976;DHT22;32724;51.094;6.996;2023-03-01T14:28:52;7.10;99.20
46976;DHT22;32724;51.094;6.996;2023-03-01T14:31:30;7.10;99.50
46976;DHT22;32724;51.094;6.996;2023-03-01T14:33:56;7.10;99.70
46976;DHT22;32724;51.094;6.996;2023-03-01T14:36:26;7.20;99.90
46976;DHT22;32724;51.094;6.996;2023-03-01T14:38:52;7.10;99.30
46976;DHT22;32724;51.094;6.996;2023-03-01T14:41:18;7.10;99.70
46976;DHT22;32724;51.094;6.996;2023-03-01T14:46:20;7.20;99.60
46976;DHT22;32724;51.094;6.996;2023-03-01T14:48:48;7.20;99.60
46976;DHT22;32724;51.094;6.996;2023-03-01T14:51:14;7.20;99.40
46976;DHT22;32724;51.094;6.996;2023-03-01T14:53:39;7.20;98.80
46976;DHT22;32724;51.094;6.996;2023-03-01T14:56:12;7.20;99.20
46976;DHT22;32724;51.094;6.996;2023-03-01T14:58:38;7.20;98.70
46976;DHT22;32724;51.094;6.996;2023-03-01T15:01:04;7.20;99.00
46976;DHT22;32724;51.094;6.996;2023-03-01T15:03:33;7.20;98.70
46976;DHT22;32724;51.094;6.996;2023-03-01T15:06:00;7.20;98.70
46976;DHT22;32724;51.094;6.996;2023-03-01T15:08:26;7.30;98.70
46976;DHT22;32724;51.094;6.996;2023-03-01T15:10:55;7.20;98.30
46976;DHT22;32724;51.094;6.996;2023-03-01T15:13:22;7.10;98.60
46976;DHT22;32724;51.094;6.996;2023-03-01T15:15:48;6.80;98.20
46976;DHT22;32724;51.094;6.996;2023-03-01T15:20:42;6.70;98.30
46976;DHT22;32724;51.094;6.996;2023-03-01T15:23:16;6.70;98.10
46976;DHT22;32724;51.094;6.996;2023-03-01T15:25:43;6.70;98.40
46976;DHT22;32724;51.094;6.996;2023-03-01T15:28:12;6.60;99.00
46976;DHT22;32724;51.094;6.996;2023-03-01T15:30:41;6.60;98.30
46976;DHT22;32724;51.094;6.996;2023-03-01T15:35:46;6.40;98.90
46976;DHT22;32724;51.094;6.996;2023-03-01T15:40:51;6.70;98.40
46976;DHT22;32724;51.094;6.996;2023-03-01T15:46:00;6.80;97.90
46976;DHT22;32724;51.094;6.996;2023-03-01T15:48:26;6.80;98.10
46976;DHT22;32724;51.094;6.996;2023-03-01T15:50:56;6.80;98.50
46976;DHT22;32724;51.094;6.996;2023-03-01T15:53:22;6.80;98.00
46976;DHT22;32724;51.094;6.996;2023-03-01T15:55:48;6.80;97.90
46976;DHT22;32724;51.094;6.996;2023-03-01T15:58:19;6.80;97.50
46976;DHT22;32724;51.094;6.996;2023-03-01T16:00:46;6.80;97.90
46976;DHT22;32724;51.094;6.996;2023-03-01T16:03:13;6.80;97.30
46976;DHT22;32724;51.094;6.996;2023-03-01T16:05:39;6.80;96.90
46976;DHT22;32724;51.094;6.996;2023-03-01T16:08:05;6.80;97.10
46976;DHT22;32724;51.094;6.996;2023-03-01T16:10:31;6.70;97.00
46976;DHT22;32724;51.094;6.996;2023-03-01T16:12:57;6.70;97.00
46976;DHT22;32724;51.094;6.996;2023-03-01T16:17:49;6.60;97.00
46976;DHT22;32724;51.094;6.996;2023-03-01T16:20:14;6.60;97.30
46976;DHT22;32724;51.094;6.996;2023-03-01T16:22:41;6.50;97.40
46976;DHT22;32724;51.094;6.996;2023-03-01T16:25:08;6.50;97.40
46976;DHT22;32724;51.094;6.996;2023-03-01T16:27:34;6.50;97.60
46976;DHT22;32724;51.094;6.996;2023-03-01T16:29:59;6.40;97.70
46976;DHT22;32724;51.094;6.996;2023-03-01T16:32:25;6.40;97.40
46976;DHT22;32724;51.094;6.996;2023-03-01T16:34:50;6.40;97.60
46976;DHT22;32724;51.094;6.996;2023-03-01T16:37:16;6.20;97.50
46976;DHT22;32724;51.094;6.996;2023-03-01T16:39:41;6.30;97.40
46976;DHT22;32724;51.094;6.996;2023-03-01T16:42:07;6.20;98.00
46976;DHT22;32724;51.094;6.996;2023-03-01T16:44:32;6.00;98.20
46976;DHT22;32724;51.094;6.996;2023-03-01T16:46:58;5.90;98.60
46976;DHT22;32724;51.094;6.996;2023-03-01T16:49:23;5.90;98.50
46976;DHT22;32724;51.094;6.996;2023-03-01T16:51:49;5.70;98.90
46976;DHT22;32724;51.094;6.996;2023-03-01T16:54:14;5.70;99.10
46976;DHT22;32724;51.094;6.996;2023-03-01T16:56:40;5.60;98.70
46976;DHT22;32724;51.094;6.996;2023-03-01T16:59:05;5.60;99.00
46976;DHT22;32724;51.094;6.996;2023-03-01T17:01:31;5.60;98.80
46976;DHT22;32724;51.094;6.996;2023-03-01T17:04:03;5.60;98.80
46976;DHT22;32724;51.094;6.996;2023-03-01T17:06:28;5.50;98.60
46976;DHT22;32724;51.094;6.996;2023-03-01T17:08:54;5.50;98.70
46976;DHT22;32724;51.094;6.996;2023-03-01T17:11:20;5.50;98.90
46976;DHT22;32724;51.094;6.996;2023-03-01T17:13:46;5.30;99.00
46976;DHT22;32724;51.094;6.996;2023-03-01T17:16:12;5.30;99.20
46976;DHT22;32724;51.094;6.996;2023-03-01T17:18:39;5.30;99.00
46976;DHT22;32724;51.094;6.996;2023-03-01T17:21:06;5.30;99.10
46976;DHT22;32724;51.094;6.996;2023-03-01T17:23:32;5.30;99.00
46976;DHT22;32724;51.094;6.996;2023-03-01T17:25:57;5.20;99.20
46976;DHT22;32724;51.094;6.996;2023-03-01T17:28:23;5.10;99.70
46976;DHT22;32724;51.094;6.996;2023-03-01T17:30:49;5.00;99.60
46976;DHT22;32724;51.094;6.996;2023-03-01T17:33:15;5.00;99.60
46976;DHT22;32724;51.094;6.996;2023-03-01T17:35:41;4.90;99.60
46976;DHT22;32724;51.094;6.996;2023-03-01T17:38:07;4.80;99.70
46976;DHT22;32724;51.094;6.996;2023-03-01T17:40:32;4.80;99.90
46976;DHT22;32724;51.094;6.996;2023-03-01T17:42:58;4.80;99.80
46976;DHT22;32724;51.094;6.996;2023-03-01T17:45:23;4.80;99.80
46976;DHT22;32724;51.094;6.996;2023-03-01T17:47:49;4.70;99.90
46976;DHT22;32724;51.094;6.996;2023-03-01T17:50:14;4.60;99.90
46976;DHT22;32724;51.094;6.996;2023-03-01T17:52:40;4.50;99.90
46976;DHT22;32724;51.094;6.996;2023-03-01T17:55:06;4.60;99.90
46976;DHT22;32724;51.094;6.996;2023-03-01T17:57:32;4.40;99.90
46976;DHT22;32724;51.094;6.996;2023-03-01T17:59:57;4.30;99.90
46976;DHT22;32724;51.094;6.996;2023-03-01T18:02:23;4.30;99.90
46976;DHT22;32724;51.094;6.996;2023-03-01T18:04:49;4.30;99.90
46976;DHT22;32724;51.094;6.996;2023-03-01T18:07:14;4.30;99.90
46976;DHT22;32724;51.094;6.996;2023-03-01T18:09:40;4.20;99.90
46976;DHT22;32724;51.094;6.996;2023-03-01T18:12:05;4.20;99.90
46976;DHT22;32724;51.094;6.996;2023-03-01T18:14:31;4.20;99.90
46976;DHT22;32724;51.094;6.996;2023-03-01T18:16:58;4.20;99.90
46976;DHT22;32724;51.094;6.996;2023-03-01T18:19:26;4.10;99.90
46976;DHT22;32724;51.094;6.996;2023-03-01T18:21:52;4.00;99.90
46976;DHT22;32724;51.094;6.996;2023-03-01T18:24:18;3.90;99.90
46976;DHT22;32724;51.094;6.996;2023-03-01T18:26:44;3.90;99.90
46976;DHT22;32724;51.094;6.996;2023-03-01T18:29:09;3.90;99.90
46976;DHT22;32724;51.094;6.996;2023-03-01T18:31:35;3.90;99.90
46976;DHT22;32724;51.094;6.996;2023-03-01T18:34:00;3.90;99.90
46976;DHT22;32724;51.094;6.996;2023-03-01T18:36:27;4.00;99.90
46976;DHT22;32724;51.094;6.996;2023-03-01T18:38:53;3.90;99.90
46976;DHT22;32724;51.094;6.996;2023-03-01T18:41:20;3.90;99.90
46976;DHT22;32724;51.094;6.996;2023-03-01T18:43:46;3.80;99.90
46976;DHT22;32724;51.094;6.996;2023-03-01T18:46:12;3.80;99.90
46976;DHT22;32724;51.094;6.996;2023-03-01T18:48:37;3.80;99.90
46976;DHT22;32724;51.094;6.996;2023-03-01T18:51:11;3.70;99.90
46976;DHT22;32724;51.094;6.996;2023-03-01T18:53:37;3.60;99.90
46976;DHT22;32724;51.094;6.996;2023-03-01T18:56:02;3.50;99.90
46976;DHT22;32724;51.094;6.996;2023-03-01T18:58:28;3.40;99.90
46976;DHT22;32724;51.094;6.996;2023-03-01T19:00:54;3.40;99.90
46976;DHT22;32724;51.094;6.996;2023-03-01T19:03:19;3.50;99.90